Time;durP1;ratioP1;P1;durP2;ratioP2;P2;SDS_P1;SDS_P2;PMS_P1;PMS_P2;Temp;Humidity;BMP_temperature;BMP_pressure;BME280_temperature;BME280_humidity;BME280_pressure;Samples;Min_cycle;Max_cycle;Signal;HPM_P1;HPM_P2
2022/09/07 00:00:18;;;;;;;1.15;0.90;;;24.80;58.20;;;;;;5112782;28;20043;-69
2022/09/07 00:02:43;;;;;;;1.33;1.02;;;24.80;58.20;;;;;;5113704;28;20079;-69
2022/09/07 00:05:09;;;;;;;1.02;0.82;;;24.80;58.30;;;;;;5114023;28;20035;-70
2022/09/07 00:07:34;;;;;;;1.10;0.88;;;24.80;58.20;;;;;;5112398;28;20044;-69
2022/09/07 00:10:00;;;;;;;1.27;1.10;;;24.80;58.30;;;;;;5112443;28;20043;-69
2022/09/07 00:12:26;;;;;;;1.00;0.90;;;24.80;58.20;;;;;;5112273;28;20077;-70
2022/09/07 00:14:51;;;;;;;1.17;1.00;;;24.80;58.30;;;;;;5112512;28;20027;-70
2022/09/07 00:17:17;;;;;;;1.00;0.85;;;24.70;58.20;;;;;;5112658;28;20482;-69
2022/09/07 00:19:43;;;;;;;1.48;1.10;;;24.70;58.20;;;;;;5112561;28;20050;-69
2022/09/07 00:22:08;;;;;;;1.17;0.75;;;24.80;58.30;;;;;;5113502;28;20184;-69
2022/09/07 00:24:34;;;;;;;1.15;0.98;;;24.70;58.20;;;;;;5113540;28;20612;-70
2022/09/07 00:26:59;;;;;;;1.10;0.90;;;24.70;58.20;;;;;;5112023;28;20118;-70
2022/09/07 00:29:25;;;;;;;1.15;0.90;;;24.70;58.20;;;;;;5111962;28;20118;-69
2022/09/07 00:31:51;;;;;;;1.63;1.30;;;24.70;58.20;;;;;;5111392;28;20043;-70
2022/09/07 00:34:16;;;;;;;1.20;1.00;;;24.70;58.20;;;;;;5113223;28;20126;-70
2022/09/07 00:36:42;;;;;;;1.40;1.30;;;24.70;58.20;;;;;;5111934;28;20038;-70
2022/09/07 00:39:08;;;;;;;1.38;1.13;;;24.70;58.20;;;;;;5112113;28;20043;-70
2022/09/07 00:41:33;;;;;;;1.70;1.13;;;24.70;58.20;;;;;;5111817;28;20063;-71
2022/09/07 00:44:39;;;;;;;1.83;1.23;;;24.70;58.20;;;;;;5111739;28;20067;-71
2022/09/07 00:47:11;;;;;;;1.80;1.40;;;24.70;58.20;;;;;;5111626;28;20096;-68
2022/09/07 00:49:37;;;;;;;1.33;1.20;;;24.70;58.20;;;;;;5111981;28;20119;-69
2022/09/07 00:52:06;;;;;;;2.15;1.25;;;24.70;58.20;;;;;;5112876;28;20121;-69
2022/09/07 00:54:36;;;;;;;1.90;1.40;;;24.70;58.30;;;;;;5112848;28;20092;-69
2022/09/07 00:57:02;;;;;;;;;;;24.70;58.30;;;;;;5113241;28;20040;-69
2022/09/07 00:59:34;;;;;;;1.23;1.00;;;24.70;58.40;;;;;;5111449;28;20367;-69
2022/09/07 01:02:00;;;;;;;2.83;1.35;;;24.70;58.40;;;;;;5111759;28;20079;-69
2022/09/07 01:04:28;;;;;;;1.88;1.20;;;24.70;58.40;;;;;;5111650;28;20175;-69
2022/09/07 01:06:54;;;;;;;2.38;1.52;;;24.70;58.50;;;;;;5111455;28;20071;-69
2022/09/07 01:09:22;;;;;;;2.30;1.20;;;24.70;58.40;;;;;;5112577;28;20172;-69
2022/09/07 01:11:50;;;;;;;1.40;1.30;;;24.60;58.40;;;;;;5112633;28;20044;-69
2022/09/07 01:14:20;;;;;;;1.40;1.30;;;24.60;58.40;;;;;;5112531;28;20471;-69
2022/09/07 01:17:11;;;;;;;1.15;1.05;;;24.60;58.40;;;;;;5111598;28;20046;-70
2022/09/07 01:20:16;;;;;;;1.92;1.38;;;24.60;58.40;;;;;;5112284;28;20386;-69
2022/09/07 01:26:02;;;;;;;1.85;1.30;;;24.60;58.50;;;;;;5130324;27;20404;-69
2022/09/07 01:28:32;;;;;;;2.05;1.02;;;24.60;58.60;;;;;;5163179;27;20046;-69
2022/09/07 01:34:07;;;;;;;1.42;1.33;;;24.60;58.50;;;;;;5130323;27;20350;-69
2022/09/07 01:36:47;;;;;;;2.47;1.40;;;24.60;58.60;;;;;;5130220;27;20057;-70
2022/09/07 01:39:14;;;;;;;1.55;1.10;;;24.60;58.60;;;;;;5113028;28;20126;-69
2022/09/07 01:41:53;;;;;;;1.73;1.17;;;24.60;58.60;;;;;;5128971;28;20505;-70
2022/09/07 01:47:05;;;;;;;1.30;1.00;;;24.60;58.60;;;;;;5130378;27;20406;-71
2022/09/07 01:49:48;;;;;;;1.63;1.17;;;24.50;58.70;;;;;;5128964;28;20054;-70
2022/09/07 01:55:08;;;;;;;1.45;1.20;;;24.50;58.70;;;;;;5130486;27;20395;-70
2022/09/07 01:57:52;;;;;;;2.20;1.27;;;24.50;58.70;;;;;;5129050;28;20539;-70
2022/09/07 02:00:19;;;;;;;1.77;1.38;;;24.50;58.70;;;;;;5130503;27;20093;-69
2022/09/07 02:05:34;;;;;;;2.30;1.20;;;24.50;58.70;;;;;;5130366;27;20400;-69
2022/09/07 02:08:06;;;;;;;1.45;1.30;;;24.50;58.80;;;;;;5129067;27;20035;-69
2022/09/07 02:13:18;;;;;;;1.92;1.52;;;24.50;58.80;;;;;;5130380;27;20840;-70
2022/09/07 02:15:51;;;;;;;1.95;1.25;;;24.50;58.90;;;;;;5129263;27;20443;-70
2022/09/07 02:18:19;;;;;;;1.98;1.42;;;24.50;58.90;;;;;;5146314;27;20118;-69
2022/09/07 02:20:49;;;;;;;1.48;1.25;;;24.50;58.90;;;;;;5146362;27;20051;-70
2022/09/07 02:23:20;;;;;;;4.32;1.65;;;24.50;58.90;;;;;;5128928;28;20045;-70
2022/09/07 02:25:53;;;;;;;1.85;1.42;;;24.50;58.90;;;;;;5128845;28;20063;-70
2022/09/07 02:28:27;;;;;;;1.77;1.40;;;24.50;58.90;;;;;;5128933;28;20114;-70
2022/09/07 02:30:53;;;;;;;2.15;1.42;;;24.50;59.00;;;;;;5128512;28;20070;-70
2022/09/07 02:33:22;;;;;;;4.65;1.73;;;24.50;59.00;;;;;;5129972;28;20063;-70
2022/09/07 02:35:48;;;;;;;1.60;1.30;;;24.50;59.00;;;;;;5128604;28;20126;-70
2022/09/07 02:38:14;;;;;;;1.45;1.35;;;24.50;59.00;;;;;;5128731;28;20504;-70
2022/09/07 02:40:40;;;;;;;1.48;1.27;;;24.50;59.10;;;;;;5128627;28;20039;-70
2022/09/07 02:43:07;;;;;;;1.80;1.13;;;24.50;59.10;;;;;;5128208;28;20107;-70
2022/09/07 02:45:46;;;;;;;1.30;1.20;;;24.40;59.00;;;;;;5129529;28;20032;-70
2022/09/07 02:51:10;;;;;;;2.13;1.38;;;24.40;59.10;;;;;;5127820;27;1846051;-70
2022/09/07 02:56:41;;;;;;;2.70;1.95;;;24.40;59.10;;;;;;5130422;27;20350;-70
2022/09/07 03:07:36;;;;;;;1.42;1.33;;;24.40;59.20;;;;;;5130321;27;20371;-70
2022/09/07 03:10:05;;;;;;;1.52;1.42;;;24.40;59.20;;;;;;5129356;28;20467;-69
2022/09/07 03:15:22;;;;;;;2.70;1.45;;;24.40;59.20;;;;;;5130391;27;20390;-70
2022/09/07 03:17:48;;;;;;;3.35;1.40;;;24.40;59.20;;;;;;5129024;28;20100;-70
2022/09/07 03:20:15;;;;;;;1.77;1.23;;;24.30;59.20;;;;;;5129011;28;20078;-70
2022/09/07 03:22:42;;;;;;;2.67;1.60;;;24.40;59.30;;;;;;5128860;28;20081;-69
2022/09/07 03:25:09;;;;;;;1.30;1.20;;;24.30;59.20;;;;;;5128962;28;20092;-69
2022/09/07 03:27:34;;;;;;;1.70;1.60;;;24.40;59.20;;;;;;5129029;28;20034;-70
2022/09/07 03:30:00;;;;;;;1.60;1.45;;;24.30;59.20;;;;;;5129933;28;20038;-70
2022/09/07 03:32:31;;;;;;;1.30;1.20;;;24.30;59.20;;;;;;5130043;27;20051;-70
2022/09/07 03:34:59;;;;;;;1.80;1.10;;;24.30;59.20;;;;;;5128724;28;20031;-70
2022/09/07 03:37:25;;;;;;;2.35;1.25;;;24.30;59.30;;;;;;5128772;28;20035;-70
2022/09/07 03:39:50;;;;;;;2.25;1.45;;;24.30;59.20;;;;;;5128626;28;20040;-70
2022/09/07 03:42:19;;;;;;;2.28;1.17;;;24.30;59.20;;;;;;5128538;28;20312;-70
2022/09/07 03:44:45;;;;;;;1.80;1.35;;;24.30;59.30;;;;;;5128705;28;20374;-70
2022/09/07 03:47:11;;;;;;;2.55;1.50;;;24.30;59.30;;;;;;5128711;27;20027;-70
2022/09/07 03:49:37;;;;;;;1.85;1.58;;;24.30;59.30;;;;;;5129851;27;20046;-70
2022/09/07 03:52:02;;;;;;;1.77;1.65;;;24.30;59.30;;;;;;5129728;28;20031;-70
2022/09/07 03:54:28;;;;;;;2.13;1.80;;;24.30;59.30;;;;;;5128261;28;20459;-70
2022/09/07 03:56:54;;;;;;;1.88;1.63;;;24.30;59.30;;;;;;5128289;28;20032;-70
2022/09/07 03:59:19;;;;;;;1.73;1.50;;;24.30;59.30;;;;;;5129449;28;20027;-70
2022/09/07 04:01:45;;;;;;;2.42;1.80;;;24.30;59.30;;;;;;5128282;28;20067;-70
2022/09/07 04:04:12;;;;;;;1.92;1.80;;;24.30;59.30;;;;;;5128375;28;20035;-70
2022/09/07 04:06:37;;;;;;;1.80;1.70;;;24.30;59.30;;;;;;5128162;28;20047;-70
2022/09/07 04:09:06;;;;;;;2.05;1.63;;;24.30;59.30;;;;;;5128086;28;20036;-70
2022/09/07 04:11:32;;;;;;;1.90;1.67;;;24.30;59.30;;;;;;5128346;28;20092;-70
2022/09/07 04:13:57;;;;;;;1.45;1.35;;;24.20;59.30;;;;;;5127717;28;20043;-70
2022/09/07 04:16:24;;;;;;;1.30;1.13;;;24.30;59.30;;;;;;5127840;28;20035;-70
2022/09/07 04:18:53;;;;;;;1.50;1.40;;;24.30;59.40;;;;;;5129251;27;20039;-70
2022/09/07 04:21:19;;;;;;;1.60;1.50;;;24.20;59.30;;;;;;5129228;27;20034;-70
2022/09/07 04:23:45;;;;;;;1.42;1.25;;;24.20;59.30;;;;;;5128139;28;20035;-70
2022/09/07 04:26:14;;;;;;;2.13;1.52;;;24.30;59.40;;;;;;5117070;28;20039;-70
2022/09/07 04:28:39;;;;;;;2.03;1.33;;;24.20;59.30;;;;;;5113406;28;20114;-70
2022/09/07 04:31:05;;;;;;;1.60;1.50;;;24.20;59.30;;;;;;5114794;28;20127;-70
2022/09/07 04:33:31;;;;;;;1.38;1.15;;;24.20;59.30;;;;;;5114161;28;20067;-70
2022/09/07 04:35:59;;;;;;;1.33;1.23;;;24.20;59.30;;;;;;5114238;28;20375;-70
2022/09/07 04:38:26;;;;;;;1.30;1.13;;;24.20;59.30;;;;;;5115343;28;20520;-69
2022/09/07 04:41:11;;;;;;;2.08;1.88;;;24.20;59.30;;;;;;5113870;28;20043;-70
2022/09/07 04:43:38;;;;;;;2.45;1.90;;;24.20;59.40;;;;;;5113962;28;20047;-70
2022/09/07 04:46:09;;;;;;;1.58;1.30;;;24.20;59.40;;;;;;5114893;28;20035;-70
2022/09/07 04:48:34;;;;;;;;;;;24.20;59.40;;;;;;5114383;28;20036;-70
2022/09/07 04:51:04;;;;;;;1.58;1.23;;;24.10;59.30;;;;;;5113565;28;19934;-70
2022/09/07 04:53:30;;;;;;;;;;;24.20;59.30;;;;;;5113991;28;20046;-70
2022/09/07 04:55:57;;;;;;;;;;;24.20;59.40;;;;;;5115310;28;19912;-72
2022/09/07 04:58:23;;;;;;;;;;;24.20;59.40;;;;;;5114144;28;19916;-70
2022/09/07 05:00:48;;;;;;;;;;;24.10;59.40;;;;;;5113835;28;19911;-70
2022/09/07 05:03:14;;;;;;;;;;;24.20;59.40;;;;;;5113824;28;19912;-70
2022/09/07 05:05:39;;;;;;;;;;;24.10;59.40;;;;;;5114032;28;19919;-69
2022/09/07 05:08:05;;;;;;;;;;;24.10;59.40;;;;;;5115005;28;19920;-70
2022/09/07 05:10:30;;;;;;;;;;;24.10;59.40;;;;;;5113639;28;20432;-70
2022/09/07 05:12:56;;;;;;;;;;;24.10;59.40;;;;;;5130659;27;19919;-70
2022/09/07 05:15:21;;;;;;;;;;;24.10;59.40;;;;;;5114627;28;19915;-70
2022/09/07 05:17:48;;;;;;;;;;;24.10;59.40;;;;;;5114893;28;19912;-70
2022/09/07 05:20:14;;;;;;;;;;;24.10;59.40;;;;;;5113538;28;19998;-69
2022/09/07 05:22:40;;;;;;;;;;;24.10;59.40;;;;;;5130549;27;19985;-70
2022/09/07 05:25:06;;;;;;;;;;;24.10;59.40;;;;;;5113456;28;19990;-70
2022/09/07 05:27:32;;;;;;;;;;;24.10;59.50;;;;;;5113599;28;19912;-70
2022/09/07 05:29:57;;;;;;;;;;;24.10;59.50;;;;;;5113224;28;19919;-70
2022/09/07 05:32:23;;;;;;;;;;;24.00;59.40;;;;;;5114543;28;19918;-70
2022/09/07 05:34:49;;;;;;;;;;;24.00;59.40;;;;;;5113228;28;19916;-70
2022/09/07 05:37:15;;;;;;;;;;;24.10;59.50;;;;;;5111406;28;20006;-70
2022/09/07 05:39:40;;;;;;;;;;;24.10;59.50;;;;;;5108417;28;20059;-71
2022/09/07 05:42:06;;;;;;;;;;;24.10;59.70;;;;;;5109320;28;20354;-71
2022/09/07 05:44:31;;;;;;;;;;;24.00;59.60;;;;;;5108736;28;19912;-70
2022/09/07 05:46:57;;;;;;;;;;;24.00;60.00;;;;;;5106490;28;19911;-69
2022/09/07 05:49:23;;;;;;;;;;;24.10;60.60;;;;;;5098677;28;19918;-68
2022/09/07 05:51:48;;;;;;;;;;;24.00;60.70;;;;;;5103028;28;19911;-68
2022/09/07 05:54:14;;;;;;;;;;;24.10;61.20;;;;;;5104941;28;19965;-68
2022/09/07 05:56:39;;;;;;;;;;;24.10;61.40;;;;;;5103744;28;19919;-68
2022/09/07 05:59:05;;;;;;;;;;;24.00;61.70;;;;;;5107256;28;19916;-68
2022/09/07 06:01:30;;;;;;;;;;;24.00;62.30;;;;;;5099863;28;19962;-68
2022/09/07 06:03:56;;;;;;;;;;;24.00;62.70;;;;;;5105539;28;19934;-69
2022/09/07 06:06:22;;;;;;;;;;;24.00;63.10;;;;;;5097740;28;20657;-68
2022/09/07 06:08:48;;;;;;;;;;;23.90;63.20;;;;;;5092568;28;19931;-69
2022/09/07 06:11:16;;;;;;;;;;;23.90;63.30;;;;;;5089822;28;20602;-69
2022/09/07 06:13:41;;;;;;;;;;;23.90;63.50;;;;;;5090267;28;19931;-69
2022/09/07 06:16:11;;;;;;;;;;;23.90;63.60;;;;;;5103898;27;19927;-68
2022/09/07 06:18:37;;;;;;;;;;;23.90;63.60;;;;;;5108663;27;19911;-68
2022/09/07 06:21:05;;;;;;;;;;;23.90;63.80;;;;;;5107744;27;19919;-68
2022/09/07 06:23:31;;;;;;;;;;;23.90;63.90;;;;;;5098131;27;19916;-69
2022/09/07 06:25:57;;;;;;;;;;;23.90;64.00;;;;;;5107900;27;19920;-68
2022/09/07 06:28:31;;;;;;;;;;;23.80;64.20;;;;;;5092737;28;19930;-69
2022/09/07 06:33:46;;;;;;;;;;;23.90;64.10;;;;;;5089480;27;19920;-69
2022/09/07 06:36:13;;;;;;;;;;;23.80;64.10;;;;;;5113182;28;19943;-69
2022/09/07 06:38:38;;;;;;;;;;;23.90;64.40;;;;;;5079219;28;20478;-68
2022/09/07 06:41:05;;;;;;;;;;;23.90;64.40;;;;;;5079769;28;19924;-69
2022/09/07 06:43:31;;;;;;;;;;;23.90;64.50;;;;;;5078708;28;19935;-68
2022/09/07 06:45:57;;;;;;;;;;;23.90;64.70;;;;;;5078512;28;19928;-66
2022/09/07 06:48:23;;;;;;;;;;;23.90;64.70;;;;;;5079739;28;19924;-66
2022/09/07 06:51:06;;;;;;;;;;;23.90;64.60;;;;;;5076634;28;19970;-66
2022/09/07 06:53:33;;;;;;;;;;;23.90;64.40;;;;;;5112574;28;19928;-67
2022/09/07 06:55:59;;;;;;;;;;;23.90;64.50;;;;;;5081077;28;20039;-66
2022/09/07 06:58:26;;;;;;;;;;;23.90;64.40;;;;;;5082605;28;19924;-70
2022/09/07 07:00:52;;;;;;;;;;;23.90;64.60;;;;;;5079224;28;20388;-69
2022/09/07 07:03:17;;;;;;;;;;;23.90;64.70;;;;;;5082089;28;19932;-68
2022/09/07 07:05:51;;;;;;;;;;;23.90;64.70;;;;;;5080452;28;19977;-69
2022/09/07 07:08:16;;;;;;;;;;;23.90;64.70;;;;;;5079688;28;19932;-68
2022/09/07 07:10:42;;;;;;;;;;;23.90;64.70;;;;;;5079958;28;19978;-68
2022/09/07 07:13:08;;;;;;;;;;;24.00;64.70;;;;;;5081473;28;20009;-67
2022/09/07 07:15:33;;;;;;;;;;;23.90;64.60;;;;;;5081604;28;19924;-69
2022/09/07 07:17:59;;;;;;;;;;;24.00;64.50;;;;;;5080975;28;20383;-67
2022/09/07 07:20:24;;;;;;;;;;;24.00;64.60;;;;;;5114808;28;20307;-67
2022/09/07 07:22:51;;;;;;;;;;;23.90;64.40;;;;;;5080280;28;19925;-68
2022/09/07 07:25:17;;;;;;;;;;;23.90;64.10;;;;;;5077555;28;19935;-68
2022/09/07 07:27:44;;;;;;;;;;;23.90;64.90;;;;;;5077010;28;20380;-67
2022/09/07 07:30:11;;;;;;;;;;;23.90;64.00;;;;;;5077711;28;19920;-67
2022/09/07 07:32:36;;;;;;;;;;;23.90;64.00;;;;;;5077688;28;20695;-70
2022/09/07 07:35:17;;;;;;;;;;;23.90;63.90;;;;;;5078397;28;19924;-73
2022/09/07 07:37:43;;;;;;;;;;;23.90;64.10;;;;;;5078706;28;19931;-69
2022/09/07 07:40:10;;;;;;;;;;;23.90;64.10;;;;;;5079805;28;20284;-67
2022/09/07 07:42:37;;;;;;;;;;;23.90;64.10;;;;;;5078175;28;19973;-70
2022/09/07 07:45:03;;;;;;;;;;;23.90;64.30;;;;;;5064850;28;19928;-69
2022/09/07 07:47:29;;;;;;;;;;;23.90;64.40;;;;;;5099034;28;19954;-69
2022/09/07 07:49:54;;;;;;;;;;;23.90;64.30;;;;;;5061096;28;20070;-69
2022/09/07 07:52:20;;;;;;;;;;;23.90;64.30;;;;;;5095037;28;19924;-69
2022/09/07 07:54:45;;;;;;;;;;;23.90;64.30;;;;;;5100591;28;19924;-67
2022/09/07 07:57:11;;;;;;;;;;;23.90;64.30;;;;;;5067640;28;19955;-69
2022/09/07 07:59:37;;;;;;;;;;;23.90;65.10;;;;;;5065911;28;19932;-69
2022/09/07 08:02:03;;;;;;;;;;;23.90;64.40;;;;;;5099403;28;19932;-67
2022/09/07 08:04:30;;;;;;;;;;;24.00;64.50;;;;;;5066523;28;20424;-70
2022/09/07 08:06:56;;;;;;;;;;;24.00;64.90;;;;;;5065415;28;19930;-68
2022/09/07 08:09:21;;;;;;;;;;;24.10;65.10;;;;;;5062782;28;20378;-69
2022/09/07 08:11:47;;;;;;;;;;;24.10;65.00;;;;;;5100434;28;19929;-68
2022/09/07 08:14:12;;;;;;;;;;;24.10;65.00;;;;;;5099728;28;19924;-68
2022/09/07 08:16:40;;;;;;;;;;;24.10;65.10;;;;;;5067839;28;19932;-70
2022/09/07 08:19:06;;;;;;;;;;;24.10;65.30;;;;;;5066958;28;19931;-68
2022/09/07 08:21:32;;;;;;;;;;;24.10;65.30;;;;;;5064434;28;19920;-72
2022/09/07 08:23:58;;;;;;;;;;;24.10;65.30;;;;;;5070526;28;19932;-72
2022/09/07 08:26:24;;;;;;;;;;;24.10;65.10;;;;;;5100017;28;19971;-72
2022/09/07 08:28:50;;;;;;;;;;;24.20;65.00;;;;;;5100838;28;19968;-66
2022/09/07 08:31:15;;;;;;;;;;;24.20;65.70;;;;;;5065423;28;19920;-71
2022/09/07 08:33:41;;;;;;;;;;;24.20;65.60;;;;;;5078995;28;20724;-71
2022/09/07 08:36:09;;;;;;;;;;;24.20;65.30;;;;;;5067865;28;20378;-69
2022/09/07 08:38:35;;;;;;;;;;;24.20;65.10;;;;;;5101199;28;20399;-68
2022/09/07 08:41:02;;;;;;;;;;;24.20;65.20;;;;;;5085295;28;19931;-75
2022/09/07 08:43:35;;;;;;;;;;;24.20;65.10;;;;;;5099118;28;19967;-68
2022/09/07 08:46:05;;;;;;;;;;;24.20;65.20;;;;;;5099227;28;19924;-70
2022/09/07 08:48:31;;;;;;;;;;;24.20;65.20;;;;;;5060313;28;19985;-72
2022/09/07 08:51:01;;;;;;;;;;;24.30;65.20;;;;;;5080980;28;19924;-69
2022/09/07 08:53:27;;;;;;;;;;;24.20;65.10;;;;;;5068111;28;19943;-71
2022/09/07 08:55:55;;;;;;;;;;;24.30;65.20;;;;;;5068028;28;19930;-67
2022/09/07 08:58:22;;;;;;;;;;;24.30;65.20;;;;;;5065313;28;20429;-67
2022/09/07 09:00:48;;;;;;;;;;;24.30;65.00;;;;;;5079511;28;19977;-68
2022/09/07 09:03:19;;;;;;;;;;;24.20;65.00;;;;;;5063295;28;20276;-71
2022/09/07 09:05:51;;;;;;;;;;;24.30;64.90;;;;;;5063415;28;19920;-69
2022/09/07 09:08:37;;;;;;;;;;;24.30;64.90;;;;;;5066035;28;20027;-67
2022/09/07 09:11:10;;;;;;;;;;;24.30;64.90;;;;;;5099340;28;19924;-72
2022/09/07 09:13:49;;;;;;;;;;;24.30;64.70;;;;;;5102771;28;20105;-68
2022/09/07 09:16:19;;;;;;;;;;;24.30;64.60;;;;;;5073146;28;19924;-68
2022/09/07 09:19:00;;;;;;;;;;;24.30;64.60;;;;;;5065521;28;19954;-68
2022/09/07 09:21:26;;;;;;;;;;;24.30;64.70;;;;;;5079388;28;19928;-70
2022/09/07 09:23:54;;;;;;;;;;;24.30;64.60;;;;;;5075952;28;19951;-68
2022/09/07 09:26:22;;;;;;;;;;;24.30;64.50;;;;;;5076651;28;20394;-68
2022/09/07 09:28:48;;;;;;;;;;;24.40;64.50;;;;;;5065596;28;19924;-66
2022/09/07 09:31:18;;;;;;;;;;;24.40;64.50;;;;;;5081442;28;19939;-66
2022/09/07 09:34:03;;;;;;;;;;;24.40;64.50;;;;;;5099670;28;20033;-68
2022/09/07 09:36:33;;;;;;;;;;;24.40;64.40;;;;;;5082902;28;20427;-68
2022/09/07 09:38:59;;;;;;;;;;;24.40;64.30;;;;;;5067245;28;20324;-68
2022/09/07 09:41:34;;;;;;;;;;;24.40;64.30;;;;;;5082775;28;19928;-68
2022/09/07 09:44:01;;;;;;;;;;;24.50;64.30;;;;;;5063030;28;19978;-69
2022/09/07 09:51:55;;;;;;;;;;;24.50;64.20;;;;;;5117888;27;19916;-67
2022/09/07 09:54:38;;;;;;;;;;;24.50;64.10;;;;;;5100912;28;20647;-66
2022/09/07 09:57:04;;;;;;;;;;;24.50;63.90;;;;;;5093768;28;19924;-67
2022/09/07 09:59:30;;;;;;;;;;;24.50;63.90;;;;;;5090892;28;20517;-68
2022/09/07 10:01:56;;;;;;;;;;;24.50;63.90;;;;;;5095421;28;20524;-67
2022/09/07 10:09:49;;;;;;;;;;;24.50;63.80;;;;;;5070046;28;20364;-69
2022/09/07 10:12:35;;;;;;;;;;;24.50;63.80;;;;;;5080475;28;20037;-68
2022/09/07 10:15:03;;;;;;;;;;;24.50;63.80;;;;;;5069536;28;20013;-69
2022/09/07 10:17:31;;;;;;;;;;;24.50;63.80;;;;;;5068956;28;19964;-66
2022/09/07 10:19:59;;;;;;;;;;;24.50;63.70;;;;;;5074526;28;19951;-66
2022/09/07 10:22:33;;;;;;;;;;;24.50;63.60;;;;;;5075461;28;19970;-68
2022/09/07 10:24:59;;;;;;;;;;;24.60;63.70;;;;;;5068278;28;19927;-69
2022/09/07 10:30:12;;;;;;;;;;;24.60;63.60;;;;;;5075957;27;19923;-67
2022/09/07 10:32:46;;;;;;;;;;;24.50;63.60;;;;;;5057864;28;19921;-68
2022/09/07 10:35:31;;;;;;;;;;;24.50;63.40;;;;;;5052162;28;20126;-68
2022/09/07 10:38:16;;;;;;;;;;;24.60;63.50;;;;;;5056032;28;19977;-68
2022/09/07 10:40:50;;;;;;;;;;;24.60;63.30;;;;;;5058488;28;20300;-68
2022/09/07 10:46:03;;;;;;;;;;;24.60;63.30;;;;;;5090907;27;19916;-69
2022/09/07 10:51:15;;;;;;;;;;;24.60;63.30;;;;;;5074202;28;19917;-68
2022/09/07 10:56:24;;;;;;;;;;;24.50;63.20;;;;;;5061578;28;19913;-68
2022/09/07 10:58:55;;;;;;;;;;;24.60;63.30;;;;;;5044932;28;19967;-68
2022/09/07 11:04:09;;;;;;;;;;;24.50;63.30;;;;;;5111887;27;1862164;-68
2022/09/07 11:06:39;;;;;;;;;;;24.50;63.20;;;;;;5165656;27;20148;-67
2022/09/07 11:09:25;;;;;;;;;;;24.50;63.20;;;;;;5144335;27;20212;-67
2022/09/07 11:14:37;;;;;;;;;;;24.50;63.30;;;;;;5070706;28;19917;-70
2022/09/07 11:17:10;;;;;;;;;;;24.50;63.30;;;;;;5060224;28;19921;-70
2022/09/07 11:22:24;;;;;;;;;;;24.60;63.40;;;;;;5071743;28;19917;-68
2022/09/07 11:24:55;;;;;;;;;;;24.60;63.30;;;;;;5055895;28;19921;-69
2022/09/07 11:27:24;;;;;;;;;;;24.70;63.50;;;;;;5061835;28;19971;-70
2022/09/07 11:29:54;;;;;;;;;;;24.60;63.40;;;;;;5064032;28;20515;-70
2022/09/07 11:32:21;;;;;;;;;;;24.70;63.60;;;;;;5048166;28;19925;-68
2022/09/07 11:34:50;;;;;;;;;;;24.70;63.40;;;;;;5056343;28;19921;-70
2022/09/07 11:37:36;;;;;;;;;;;24.70;62.90;;;;;;5056531;28;19968;-71
2022/09/07 11:40:05;;;;;;;;;;;24.70;63.20;;;;;;5055652;28;20572;-71
2022/09/07 11:42:32;;;;;;;;;;;24.70;63.20;;;;;;5049813;28;19921;-71
2022/09/07 11:45:03;;;;;;;;;;;24.70;63.10;;;;;;5049441;28;19931;-71
2022/09/07 11:47:46;;;;;;;;;;;24.70;63.10;;;;;;5045164;28;19928;-70
2022/09/07 11:50:16;;;;;;;;;;;24.70;63.00;;;;;;5057488;28;19947;-70
2022/09/07 11:52:43;;;;;;;;;;;24.70;62.90;;;;;;5052211;28;19920;-74
2022/09/07 11:55:19;;;;;;;;;;;24.80;63.00;;;;;;5051885;28;19995;-71
2022/09/07 12:00:37;;;;;;;;;;;24.80;63.00;;;;;;5095747;27;19919;-75
2022/09/07 12:08:31;;;;;;;;;;;24.80;62.70;;;;;;5098033;27;19916;-70
2022/09/07 12:11:16;;;;;;;;;;;24.80;62.70;;;;;;5075850;28;20124;-70
2022/09/07 12:14:02;;;;;;;;;;;24.80;62.60;;;;;;5074315;28;19955;-70
2022/09/07 12:19:17;;;;;;;;;;;24.70;62.50;;;;;;5097032;27;19916;-70
2022/09/07 12:40:58;;;;;;;;;;;24.70;62.20;;;;;;5076113;28;20295;-70
2022/09/07 12:46:16;;;;;;;;;;;24.60;62.20;;;;;;5065402;28;20395;-70
2022/09/07 12:49:03;;;;;;;;;;;24.60;62.20;;;;;;5040028;28;19921;-70
2022/09/07 12:51:33;;;;;;;;;;;24.60;62.20;;;;;;5032832;28;19947;-70
2022/09/07 12:54:18;;;;;;;;;;;24.60;62.20;;;;;;5051686;28;19979;-70
2022/09/07 12:56:48;;;;;;;;;;;24.60;62.20;;;;;;5034933;28;19921;-70
2022/09/07 12:59:34;;;;;;;;;;;24.60;62.20;;;;;;5042796;28;19921;-70
2022/09/07 13:04:52;;;;;;;;;;;24.50;62.10;;;;;;5054296;28;19935;-70
2022/09/07 13:07:37;;;;;;;;;;;24.50;62.00;;;;;;5043934;28;19920;-70
2022/09/07 13:10:14;;;;;;;;;;;24.50;62.00;;;;;;5043808;28;19921;-70
2022/09/07 13:12:43;;;;;;;;;;;24.50;62.00;;;;;;5044099;28;19936;-70
2022/09/07 13:15:28;;;;;;;;;;;24.50;62.00;;;;;;5049928;28;20161;-70
2022/09/07 13:17:55;;;;;;;;;;;24.50;62.00;;;;;;5050309;28;19921;-70
2022/09/07 13:20:22;;;;;;;;;;;24.50;61.90;;;;;;5064979;28;19925;-70
2022/09/07 13:28:14;;;;;;;;;;;24.50;61.90;;;;;;5114939;27;19924;-70
2022/09/07 13:33:41;;;;;;;;;;;24.50;61.70;;;;;;5092506;27;19942;-68
2022/09/07 13:36:14;;;;;;;;;;;24.50;61.80;;;;;;5107642;28;19924;-67
2022/09/07 13:38:40;;;;;;;;;;;24.50;62.20;;;;;;5106237;28;20514;-66
2022/09/07 13:41:11;;;;;;;;;;;24.60;61.90;;;;;;5077689;28;20153;-66
2022/09/07 13:43:36;;;;;;;;;;;24.60;61.80;;;;;;5073504;28;20280;-67
2022/09/07 13:46:11;;;;;;;;;;;24.60;61.80;;;;;;5076127;28;19943;-66
2022/09/07 13:48:40;;;;;;;;;;;24.60;61.70;;;;;;5080819;28;19970;-70
2022/09/07 13:51:26;;;;;;;;;;;24.70;61.80;;;;;;5078776;28;19930;-68
2022/09/07 13:59:30;;;;;;;;;;;24.70;61.90;;;;;;5087652;28;19916;-71
2022/09/07 14:01:56;;;;;;;;;;;24.70;62.00;;;;;;5086590;28;19927;-68
2022/09/07 14:04:24;;;;;;;;;;;24.70;62.00;;;;;;5086148;28;19928;-67
2022/09/07 14:06:49;;;;;;;;;;;24.80;62.00;;;;;;5087391;28;19989;-68
2022/09/07 14:09:16;;;;;;;;;;;24.80;61.80;;;;;;5086646;28;20372;-67
2022/09/07 14:11:46;;;;;;;;;;;24.80;61.70;;;;;;5086602;28;19966;-67
2022/09/07 14:17:01;;;;;;;;;;;24.90;61.40;;;;;;5088390;28;19918;-67
2022/09/07 14:22:29;;;;;;;;;;;24.90;61.20;;;;;;5107550;27;19912;-67
2022/09/07 14:24:56;;;;;;;;;;;24.80;61.10;;;;;;5090069;28;20014;-67
2022/09/07 14:27:23;;;;;;;;;;;24.90;61.30;;;;;;5089797;28;20367;-68
2022/09/07 14:29:49;;;;;;;;;;;24.90;61.10;;;;;;5088990;28;19975;-68
2022/09/07 14:32:16;;;;;;;;;;;24.90;62.00;;;;;;5088999;28;19967;-69
2022/09/07 14:34:43;;;;;;;;;;;24.90;61.20;;;;;;5088373;28;20023;-69
2022/09/07 14:37:11;;;;;;;;;;;24.90;61.10;;;;;;5088760;28;19924;-66
2022/09/07 14:39:38;;;;;;;;;;;24.90;61.10;;;;;;5090828;28;19920;-71
2022/09/07 14:42:04;;;;;;;;;;;24.90;61.10;;;;;;5088675;28;19950;-70
2022/09/07 14:44:31;;;;;;;;;;;24.90;60.90;;;;;;5089809;28;19930;-68
2022/09/07 14:46:59;;;;;;;;;;;24.90;60.90;;;;;;5086050;28;19920;-69
2022/09/07 14:49:24;;;;;;;;;;;24.90;60.90;;;;;;5089171;28;19928;-69
2022/09/07 14:51:51;;;;;;;;;;;24.90;61.00;;;;;;5090178;28;20429;-67
2022/09/07 14:54:18;;;;;;;;;;;24.90;61.10;;;;;;5090298;28;19927;-66
2022/09/07 14:56:56;;;;;;;;;;;24.90;61.00;;;;;;5089018;28;19920;-68
2022/09/07 14:59:41;;;;;;;;;;;24.90;60.90;;;;;;5090228;28;19961;-68
2022/09/07 15:02:27;;;;;;;;;;;24.90;60.90;;;;;;5107615;28;19939;-68
2022/09/07 15:05:12;;;;;;;;;;;24.90;60.90;;;;;;5107654;28;20024;-68
2022/09/07 15:07:38;;;;;;;;;;;24.90;60.90;;;;;;5090473;28;20382;-68
2022/09/07 15:10:12;;;;;;;;;;;24.90;60.90;;;;;;5090177;28;19920;-68
2022/09/07 15:12:40;;;;;;;;;;;24.80;60.90;;;;;;5090977;28;19920;-68
2022/09/07 15:15:10;;;;;;;;;;;24.80;61.00;;;;;;5108058;28;19920;-68
2022/09/07 15:17:35;;;;;;;;;;;24.80;61.00;;;;;;5089757;28;20367;-70
2022/09/07 15:20:01;;;;;;;;;;;24.70;61.00;;;;;;5088587;28;19920;-69
2022/09/07 15:22:27;;;;;;;;;;;24.70;61.00;;;;;;5089260;28;19920;-70
2022/09/07 15:24:52;;;;;;;;;;;24.70;61.10;;;;;;5107596;28;19966;-70
2022/09/07 15:27:19;;;;;;;;;;;24.70;61.10;;;;;;5090240;28;19920;-70
2022/09/07 15:29:45;;;;;;;;;;;24.70;61.10;;;;;;5089522;28;20399;-70
2022/09/07 15:32:11;;;;;;;;;;;24.70;61.10;;;;;;5084971;28;19962;-70
2022/09/07 15:34:36;;;;;;;;;;;24.60;61.10;;;;;;5076107;28;19920;-70
2022/09/07 15:37:02;;;;;;;;;;;24.60;61.10;;;;;;5094343;28;19924;-71
2022/09/07 15:39:29;;;;;;;;;;;24.60;61.20;;;;;;5093991;28;19920;-70
2022/09/07 15:41:55;;;;;;;;;;;24.60;61.20;;;;;;5093527;28;19924;-69
2022/09/07 15:44:20;;;;;;;;;;;24.60;61.30;;;;;;5075304;28;19958;-69
2022/09/07 15:46:47;;;;;;;;;;;24.50;61.20;;;;;;5093753;28;19920;-69
2022/09/07 15:49:13;;;;;;;;;;;24.60;61.40;;;;;;5076007;28;19920;-70
2022/09/07 15:51:39;;;;;;;;;;;24.50;61.30;;;;;;5076271;28;19923;-69
2022/09/07 15:54:05;;;;;;;;;;;24.50;61.40;;;;;;5075957;28;19966;-70
2022/09/07 15:56:30;;;;;;;;;;;24.50;61.40;;;;;;5075898;28;19971;-69
2022/09/07 15:58:56;;;;;;;;;;;24.50;61.50;;;;;;5075636;28;20259;-69